sensor_id;sensor_type;location;lat;lon;timestamp;P1;durP1;ratioP1;P2;durP2;ratioP2
32094;SDS011;18608;53.688;10.748;2023-07-28T00:02:10;10.87;;;8.40;;
32094;SDS011;18608;53.688;10.748;2023-07-28T00:04:36;11.73;;;8.40;;
32094;SDS011;18608;53.688;10.748;2023-07-28T00:07:02;9.60;;;7.47;;
32094;SDS011;18608;53.688;10.748;2023-07-28T00:09:29;12.13;;;8.60;;
32094;SDS011;18608;53.688;10.748;2023-07-28T00:11:58;11.70;;;8.57;;
32094;SDS011;18608;53.688;10.748;2023-07-28T00:14:24;12.10;;;8.10;;
32094;SDS011;18608;53.688;10.748;2023-07-28T00:16:51;16.53;;;9.30;;
32094;SDS011;18608;53.688;10.748;2023-07-28T00:19:17;11.07;;;8.23;;
32094;SDS011;18608;53.688;10.748;2023-07-28T00:21:44;12.53;;;8.57;;
32094;SDS011;18608;53.688;10.748;2023-07-28T00:24:10;17.87;;;9.10;;
32094;SDS011;18608;53.688;10.748;2023-07-28T00:26:36;10.00;;;8.43;;
32094;SDS011;18608;53.688;10.748;2023-07-28T00:29:02;9.40;;;7.17;;
32094;SDS011;18608;53.688;10.748;2023-07-28T00:31:31;12.20;;;8.77;;
32094;SDS011;18608;53.688;10.748;2023-07-28T00:33:57;11.87;;;8.33;;
32094;SDS011;18608;53.688;10.748;2023-07-28T00:36:23;12.97;;;8.20;;
32094;SDS011;18608;53.688;10.748;2023-07-28T00:38:49;9.30;;;8.07;;
32094;SDS011;18608;53.688;10.748;2023-07-28T00:41:15;10.93;;;7.83;;
32094;SDS011;18608;53.688;10.748;2023-07-28T00:43:41;11.93;;;9.30;;
32094;SDS011;18608;53.688;10.748;2023-07-28T00:46:08;8.43;;;7.60;;
32094;SDS011;18608;53.688;10.748;2023-07-28T00:48:34;11.80;;;8.47;;
32094;SDS011;18608;53.688;10.748;2023-07-28T00:51:00;12.83;;;8.60;;
32094;SDS011;18608;53.688;10.748;2023-07-28T00:53:27;10.10;;;7.50;;
32094;SDS011;18608;53.688;10.748;2023-07-28T00:55:53;11.90;;;7.57;;
32094;SDS011;18608;53.688;10.748;2023-07-28T00:58:19;12.60;;;7.30;;
32094;SDS011;18608;53.688;10.748;2023-07-28T01:00:45;13.90;;;8.57;;
32094;SDS011;18608;53.688;10.748;2023-07-28T01:03:12;9.90;;;7.30;;
32094;SDS011;18608;53.688;10.748;2023-07-28T01:08:06;9.83;;;7.13;;
32094;SDS011;18608;53.688;10.748;2023-07-28T01:10:48;9.00;;;6.80;;
32094;SDS011;18608;53.688;10.748;2023-07-28T01:13:15;7.37;;;6.57;;
32094;SDS011;18608;53.688;10.748;2023-07-28T01:15:40;6.40;;;5.63;;
32094;SDS011;18608;53.688;10.748;2023-07-28T01:18:06;9.87;;;7.80;;
32094;SDS011;18608;53.688;10.748;2023-07-28T01:20:33;9.47;;;7.47;;
32094;SDS011;18608;53.688;10.748;2023-07-28T01:28:48;7.63;;;6.60;;
32094;SDS011;18608;53.688;10.748;2023-07-28T01:31:15;9.77;;;7.97;;
32094;SDS011;18608;53.688;10.748;2023-07-28T01:33:41;11.13;;;8.03;;
32094;SDS011;18608;53.688;10.748;2023-07-28T01:36:07;8.90;;;7.73;;
32094;SDS011;18608;53.688;10.748;2023-07-28T01:38:33;12.53;;;7.27;;
32094;SDS011;18608;53.688;10.748;2023-07-28T01:40:59;9.40;;;6.93;;
32094;SDS011;18608;53.688;10.748;2023-07-28T01:43:25;10.90;;;7.43;;
32094;SDS011;18608;53.688;10.748;2023-07-28T01:45:51;7.23;;;6.33;;
32094;SDS011;18608;53.688;10.748;2023-07-28T01:48:17;7.17;;;6.23;;
32094;SDS011;18608;53.688;10.748;2023-07-28T01:50:43;9.77;;;6.57;;
32094;SDS011;18608;53.688;10.748;2023-07-28T01:53:09;7.80;;;6.33;;
32094;SDS011;18608;53.688;10.748;2023-07-28T01:55:35;9.70;;;6.93;;
32094;SDS011;18608;53.688;10.748;2023-07-28T01:58:01;10.93;;;7.63;;
32094;SDS011;18608;53.688;10.748;2023-07-28T02:00:28;8.50;;;6.93;;
32094;SDS011;18608;53.688;10.748;2023-07-28T02:02:54;7.20;;;6.57;;
32094;SDS011;18608;53.688;10.748;2023-07-28T02:05:20;9.00;;;6.73;;
32094;SDS011;18608;53.688;10.748;2023-07-28T02:07:46;8.80;;;7.90;;
32094;SDS011;18608;53.688;10.748;2023-07-28T02:10:12;10.57;;;8.00;;
32094;SDS011;18608;53.688;10.748;2023-07-28T02:12:38;9.37;;;6.80;;
32094;SDS011;18608;53.688;10.748;2023-07-28T02:15:05;15.23;;;6.97;;
32094;SDS011;18608;53.688;10.748;2023-07-28T02:17:31;12.83;;;8.00;;
32094;SDS011;18608;53.688;10.748;2023-07-28T02:19:57;8.67;;;6.30;;
32094;SDS011;18608;53.688;10.748;2023-07-28T02:22:23;10.50;;;7.57;;
32094;SDS011;18608;53.688;10.748;2023-07-28T02:24:49;11.53;;;8.27;;
32094;SDS011;18608;53.688;10.748;2023-07-28T02:27:15;10.20;;;8.33;;
32094;SDS011;18608;53.688;10.748;2023-07-28T02:29:41;11.00;;;9.13;;
32094;SDS011;18608;53.688;10.748;2023-07-28T02:32:08;11.83;;;9.00;;
32094;SDS011;18608;53.688;10.748;2023-07-28T02:34:34;13.93;;;8.13;;
32094;SDS011;18608;53.688;10.748;2023-07-28T02:37:00;13.60;;;8.30;;
32094;SDS011;18608;53.688;10.748;2023-07-28T02:39:26;8.63;;;7.60;;
32094;SDS011;18608;53.688;10.748;2023-07-28T02:41:52;9.33;;;7.73;;
32094;SDS011;18608;53.688;10.748;2023-07-28T02:44:18;10.83;;;8.83;;
32094;SDS011;18608;53.688;10.748;2023-07-28T02:46:44;11.30;;;7.33;;
32094;SDS011;18608;53.688;10.748;2023-07-28T02:49:10;8.57;;;6.93;;
32094;SDS011;18608;53.688;10.748;2023-07-28T02:51:36;8.10;;;7.00;;
32094;SDS011;18608;53.688;10.748;2023-07-28T02:54:02;9.67;;;6.57;;
32094;SDS011;18608;53.688;10.748;2023-07-28T02:56:28;9.37;;;8.10;;
32094;SDS011;18608;53.688;10.748;2023-07-28T02:58:59;8.50;;;6.70;;
32094;SDS011;18608;53.688;10.748;2023-07-28T03:01:25;7.53;;;5.90;;
32094;SDS011;18608;53.688;10.748;2023-07-28T03:03:52;7.87;;;6.50;;
32094;SDS011;18608;53.688;10.748;2023-07-28T03:06:18;8.17;;;6.70;;
32094;SDS011;18608;53.688;10.748;2023-07-28T03:08:43;7.87;;;6.23;;
32094;SDS011;18608;53.688;10.748;2023-07-28T03:11:09;8.37;;;6.00;;
32094;SDS011;18608;53.688;10.748;2023-07-28T03:13:35;7.63;;;5.90;;
32094;SDS011;18608;53.688;10.748;2023-07-28T03:16:02;5.83;;;4.93;;
32094;SDS011;18608;53.688;10.748;2023-07-28T03:18:28;5.53;;;4.93;;
32094;SDS011;18608;53.688;10.748;2023-07-28T03:20:54;5.27;;;4.77;;
32094;SDS011;18608;53.688;10.748;2023-07-28T03:23:20;5.80;;;5.30;;
32094;SDS011;18608;53.688;10.748;2023-07-28T03:25:46;6.10;;;3.80;;
32094;SDS011;18608;53.688;10.748;2023-07-28T03:28:12;4.20;;;3.80;;
32094;SDS011;18608;53.688;10.748;2023-07-28T03:30:38;5.87;;;4.17;;
32094;SDS011;18608;53.688;10.748;2023-07-28T03:33:04;4.40;;;4.00;;
32094;SDS011;18608;53.688;10.748;2023-07-28T03:35:30;5.63;;;4.60;;
32094;SDS011;18608;53.688;10.748;2023-07-28T03:37:56;6.93;;;4.13;;
32094;SDS011;18608;53.688;10.748;2023-07-28T03:40:22;4.47;;;4.07;;
32094;SDS011;18608;53.688;10.748;2023-07-28T03:42:48;4.43;;;4.03;;
32094;SDS011;18608;53.688;10.748;2023-07-28T03:45:13;5.17;;;3.63;;
32094;SDS011;18608;53.688;10.748;2023-07-28T03:47:40;3.40;;;3.10;;
32094;SDS011;18608;53.688;10.748;2023-07-28T03:50:06;3.03;;;2.90;;
32094;SDS011;18608;53.688;10.748;2023-07-28T03:52:32;3.97;;;3.60;;
32094;SDS011;18608;53.688;10.748;2023-07-28T03:54:58;3.17;;;2.97;;
32094;SDS011;18608;53.688;10.748;2023-07-28T03:57:24;3.10;;;2.90;;
32094;SDS011;18608;53.688;10.748;2023-07-28T03:59:50;3.50;;;3.20;;
32094;SDS011;18608;53.688;10.748;2023-07-28T04:02:16;3.60;;;3.30;;
32094;SDS011;18608;53.688;10.748;2023-07-28T04:04:42;8.67;;;3.67;;
32094;SDS011;18608;53.688;10.748;2023-07-28T04:07:08;6.57;;;4.37;;
32094;SDS011;18608;53.688;10.748;2023-07-28T04:09:34;3.70;;;3.40;;
32094;SDS011;18608;53.688;10.748;2023-07-28T04:12:00;3.37;;;3.07;;
32094;SDS011;18608;53.688;10.748;2023-07-28T04:14:26;4.20;;;3.80;;
32094;SDS011;18608;53.688;10.748;2023-07-28T04:16:52;3.07;;;2.77;;
32094;SDS011;18608;53.688;10.748;2023-07-28T04:19:18;3.33;;;3.10;;
32094;SDS011;18608;53.688;10.748;2023-07-28T04:21:44;3.90;;;3.47;;
32094;SDS011;18608;53.688;10.748;2023-07-28T04:24:10;3.60;;;3.30;;
32094;SDS011;18608;53.688;10.748;2023-07-28T04:26:36;4.70;;;3.70;;
32094;SDS011;18608;53.688;10.748;2023-07-28T04:29:03;3.67;;;3.17;;
32094;SDS011;18608;53.688;10.748;2023-07-28T04:31:29;4.53;;;4.10;;
32094;SDS011;18608;53.688;10.748;2023-07-28T04:33:55;4.30;;;4.00;;
32094;SDS011;18608;53.688;10.748;2023-07-28T04:36:22;5.37;;;4.90;;
32094;SDS011;18608;53.688;10.748;2023-07-28T04:38:48;5.53;;;4.50;;
32094;SDS011;18608;53.688;10.748;2023-07-28T04:41:14;5.00;;;4.50;;
32094;SDS011;18608;53.688;10.748;2023-07-28T04:43:40;5.20;;;4.17;;
32094;SDS011;18608;53.688;10.748;2023-07-28T04:46:06;6.10;;;5.33;;
32094;SDS011;18608;53.688;10.748;2023-07-28T04:48:32;6.20;;;5.57;;
32094;SDS011;18608;53.688;10.748;2023-07-28T04:50:58;6.13;;;5.53;;
32094;SDS011;18608;53.688;10.748;2023-07-28T04:53:24;8.00;;;6.00;;
32094;SDS011;18608;53.688;10.748;2023-07-28T04:55:50;7.30;;;6.23;;
32094;SDS011;18608;53.688;10.748;2023-07-28T04:58:16;6.47;;;5.80;;
32094;SDS011;18608;53.688;10.748;2023-07-28T05:00:42;6.67;;;5.83;;
32094;SDS011;18608;53.688;10.748;2023-07-28T05:03:08;9.77;;;6.73;;
32094;SDS011;18608;53.688;10.748;2023-07-28T05:05:34;7.27;;;6.57;;
32094;SDS011;18608;53.688;10.748;2023-07-28T05:08:00;9.33;;;7.70;;
32094;SDS011;18608;53.688;10.748;2023-07-28T05:10:26;10.17;;;6.50;;
32094;SDS011;18608;53.688;10.748;2023-07-28T05:12:52;7.90;;;7.00;;
32094;SDS011;18608;53.688;10.748;2023-07-28T05:15:18;12.50;;;8.20;;
32094;SDS011;18608;53.688;10.748;2023-07-28T05:17:44;11.30;;;8.27;;
32094;SDS011;18608;53.688;10.748;2023-07-28T05:20:10;11.90;;;8.87;;
32094;SDS011;18608;53.688;10.748;2023-07-28T05:22:36;12.57;;;8.77;;
32094;SDS011;18608;53.688;10.748;2023-07-28T05:25:02;11.70;;;8.43;;
32094;SDS011;18608;53.688;10.748;2023-07-28T05:27:28;14.00;;;8.73;;
32094;SDS011;18608;53.688;10.748;2023-07-28T05:29:54;11.80;;;8.30;;
32094;SDS011;18608;53.688;10.748;2023-07-28T05:32:20;14.13;;;10.43;;
32094;SDS011;18608;53.688;10.748;2023-07-28T05:34:46;14.47;;;10.23;;
32094;SDS011;18608;53.688;10.748;2023-07-28T05:37:13;11.93;;;9.00;;
32094;SDS011;18608;53.688;10.748;2023-07-28T05:39:39;12.70;;;10.33;;
32094;SDS011;18608;53.688;10.748;2023-07-28T05:42:05;15.60;;;10.17;;
32094;SDS011;18608;53.688;10.748;2023-07-28T05:44:31;12.70;;;9.50;;
32094;SDS011;18608;53.688;10.748;2023-07-28T05:46:57;13.50;;;9.93;;
32094;SDS011;18608;53.688;10.748;2023-07-28T05:49:23;14.50;;;9.33;;
32094;SDS011;18608;53.688;10.748;2023-07-28T05:51:49;19.00;;;11.63;;
32094;SDS011;18608;53.688;10.748;2023-07-28T05:54:15;16.13;;;8.87;;
32094;SDS011;18608;53.688;10.748;2023-07-28T05:56:42;14.50;;;10.10;;
32094;SDS011;18608;53.688;10.748;2023-07-28T05:59:08;14.20;;;9.60;;
32094;SDS011;18608;53.688;10.748;2023-07-28T06:01:34;13.03;;;9.50;;
32094;SDS011;18608;53.688;10.748;2023-07-28T06:04:00;10.50;;;8.57;;
32094;SDS011;18608;53.688;10.748;2023-07-28T06:06:26;11.97;;;8.83;;
32094;SDS011;18608;53.688;10.748;2023-07-28T06:08:52;14.77;;;9.47;;
32094;SDS011;18608;53.688;10.748;2023-07-28T06:11:18;10.73;;;8.93;;
32094;SDS011;18608;53.688;10.748;2023-07-28T06:13:44;17.50;;;8.80;;
32094;SDS011;18608;53.688;10.748;2023-07-28T06:16:11;10.30;;;8.37;;
32094;SDS011;18608;53.688;10.748;2023-07-28T06:18:37;8.20;;;7.23;;
32094;SDS011;18608;53.688;10.748;2023-07-28T06:21:03;11.77;;;8.20;;
32094;SDS011;18608;53.688;10.748;2023-07-28T06:23:29;8.63;;;7.63;;
32094;SDS011;18608;53.688;10.748;2023-07-28T06:25:55;10.07;;;7.13;;
32094;SDS011;18608;53.688;10.748;2023-07-28T06:28:21;9.50;;;7.37;;
32094;SDS011;18608;53.688;10.748;2023-07-28T06:30:47;12.17;;;8.97;;
32094;SDS011;18608;53.688;10.748;2023-07-28T06:33:19;9.40;;;8.30;;
32094;SDS011;18608;53.688;10.748;2023-07-28T06:35:45;12.57;;;8.70;;
32094;SDS011;18608;53.688;10.748;2023-07-28T06:38:11;8.77;;;7.33;;
32094;SDS011;18608;53.688;10.748;2023-07-28T06:40:37;8.77;;;7.90;;
32094;SDS011;18608;53.688;10.748;2023-07-28T06:43:03;13.40;;;8.80;;
32094;SDS011;18608;53.688;10.748;2023-07-28T06:45:29;11.80;;;8.40;;
32094;SDS011;18608;53.688;10.748;2023-07-28T06:47:55;12.00;;;8.57;;
32094;SDS011;18608;53.688;10.748;2023-07-28T06:50:21;10.50;;;8.60;;
32094;SDS011;18608;53.688;10.748;2023-07-28T06:52:47;13.00;;;9.10;;
32094;SDS011;18608;53.688;10.748;2023-07-28T06:55:14;11.83;;;8.50;;
32094;SDS011;18608;53.688;10.748;2023-07-28T06:57:40;12.13;;;8.40;;
32094;SDS011;18608;53.688;10.748;2023-07-28T07:00:06;12.53;;;7.90;;
32094;SDS011;18608;53.688;10.748;2023-07-28T07:02:34;10.73;;;7.50;;
32094;SDS011;18608;53.688;10.748;2023-07-28T07:05:00;8.93;;;7.50;;
32094;SDS011;18608;53.688;10.748;2023-07-28T07:07:27;11.30;;;7.00;;
32094;SDS011;18608;53.688;10.748;2023-07-28T07:09:53;6.93;;;5.63;;
32094;SDS011;18608;53.688;10.748;2023-07-28T07:12:19;8.70;;;5.87;;
32094;SDS011;18608;53.688;10.748;2023-07-28T07:14:46;13.13;;;7.30;;
32094;SDS011;18608;53.688;10.748;2023-07-28T07:17:12;7.93;;;5.30;;
32094;SDS011;18608;53.688;10.748;2023-07-28T07:19:38;5.43;;;4.60;;
32094;SDS011;18608;53.688;10.748;2023-07-28T07:22:04;5.97;;;5.10;;
32094;SDS011;18608;53.688;10.748;2023-07-28T07:24:30;6.43;;;4.97;;
32094;SDS011;18608;53.688;10.748;2023-07-28T07:26:56;5.77;;;5.17;;
32094;SDS011;18608;53.688;10.748;2023-07-28T07:29:22;8.60;;;5.13;;
32094;SDS011;18608;53.688;10.748;2023-07-28T07:31:48;4.20;;;3.60;;
32094;SDS011;18608;53.688;10.748;2023-07-28T07:34:19;16.27;;;7.03;;
32094;SDS011;18608;53.688;10.748;2023-07-28T07:36:45;6.83;;;5.47;;
32094;SDS011;18608;53.688;10.748;2023-07-28T07:39:11;6.40;;;5.50;;
32094;SDS011;18608;53.688;10.748;2023-07-28T07:41:37;6.47;;;5.43;;
32094;SDS011;18608;53.688;10.748;2023-07-28T07:44:03;5.80;;;5.23;;
32094;SDS011;18608;53.688;10.748;2023-07-28T07:46:29;8.10;;;4.50;;
32094;SDS011;18608;53.688;10.748;2023-07-28T07:48:55;4.77;;;4.33;;
32094;SDS011;18608;53.688;10.748;2023-07-28T07:51:21;3.93;;;3.63;;
32094;SDS011;18608;53.688;10.748;2023-07-28T07:53:47;8.57;;;4.37;;
32094;SDS011;18608;53.688;10.748;2023-07-28T07:56:13;3.63;;;3.33;;
32094;SDS011;18608;53.688;10.748;2023-07-28T07:58:39;5.00;;;4.60;;
32094;SDS011;18608;53.688;10.748;2023-07-28T08:01:05;2.90;;;2.70;;
32094;SDS011;18608;53.688;10.748;2023-07-28T08:03:31;5.40;;;4.70;;
32094;SDS011;18608;53.688;10.748;2023-07-28T08:05:58;5.30;;;4.10;;
32094;SDS011;18608;53.688;10.748;2023-07-28T08:08:24;4.83;;;3.93;;
32094;SDS011;18608;53.688;10.748;2023-07-28T08:10:52;5.97;;;3.70;;
32094;SDS011;18608;53.688;10.748;2023-07-28T08:13:18;5.70;;;3.97;;
32094;SDS011;18608;53.688;10.748;2023-07-28T08:15:44;4.17;;;3.60;;
32094;SDS011;18608;53.688;10.748;2023-07-28T08:18:11;3.37;;;3.17;;
32094;SDS011;18608;53.688;10.748;2023-07-28T08:20:39;4.73;;;4.30;;
32094;SDS011;18608;53.688;10.748;2023-07-28T08:23:06;5.77;;;5.27;;
32094;SDS011;18608;53.688;10.748;2023-07-28T08:25:32;7.30;;;4.77;;
32094;SDS011;18608;53.688;10.748;2023-07-28T08:27:59;5.30;;;4.20;;
32094;SDS011;18608;53.688;10.748;2023-07-28T08:30:25;6.00;;;4.73;;
32094;SDS011;18608;53.688;10.748;2023-07-28T08:32:51;4.53;;;4.13;;
32094;SDS011;18608;53.688;10.748;2023-07-28T08:35:17;4.37;;;3.97;;
32094;SDS011;18608;53.688;10.748;2023-07-28T08:37:43;4.17;;;3.87;;
32094;SDS011;18608;53.688;10.748;2023-07-28T08:40:10;5.33;;;4.67;;
32094;SDS011;18608;53.688;10.748;2023-07-28T08:42:37;5.23;;;4.73;;
32094;SDS011;18608;53.688;10.748;2023-07-28T08:45:04;6.03;;;5.03;;
32094;SDS011;18608;53.688;10.748;2023-07-28T08:47:31;5.20;;;4.70;;
32094;SDS011;18608;53.688;10.748;2023-07-28T08:49:57;3.77;;;3.47;;
32094;SDS011;18608;53.688;10.748;2023-07-28T08:52:23;3.57;;;3.27;;
32094;SDS011;18608;53.688;10.748;2023-07-28T08:54:49;4.20;;;3.80;;
32094;SDS011;18608;53.688;10.748;2023-07-28T08:57:16;4.10;;;3.70;;
32094;SDS011;18608;53.688;10.748;2023-07-28T08:59:44;4.40;;;3.93;;
32094;SDS011;18608;53.688;10.748;2023-07-28T09:02:14;4.10;;;3.70;;
32094;SDS011;18608;53.688;10.748;2023-07-28T09:04:41;3.10;;;2.90;;
32094;SDS011;18608;53.688;10.748;2023-07-28T09:07:07;2.70;;;2.50;;
32094;SDS011;18608;53.688;10.748;2023-07-28T09:09:33;2.70;;;2.50;;
32094;SDS011;18608;53.688;10.748;2023-07-28T09:11:59;3.77;;;2.83;;
32094;SDS011;18608;53.688;10.748;2023-07-28T09:14:26;2.50;;;2.40;;
32094;SDS011;18608;53.688;10.748;2023-07-28T09:16:52;4.33;;;2.53;;
32094;SDS011;18608;53.688;10.748;2023-07-28T09:19:19;2.10;;;2.00;;
32094;SDS011;18608;53.688;10.748;2023-07-28T09:21:47;2.07;;;1.97;;
32094;SDS011;18608;53.688;10.748;2023-07-28T09:24:32;2.20;;;2.00;;
32094;SDS011;18608;53.688;10.748;2023-07-28T09:26:59;1.87;;;1.77;;
32094;SDS011;18608;53.688;10.748;2023-07-28T09:29:26;2.40;;;2.30;;
32094;SDS011;18608;53.688;10.748;2023-07-28T09:32:03;2.20;;;2.10;;
32094;SDS011;18608;53.688;10.748;2023-07-28T09:34:30;1.47;;;1.30;;
32094;SDS011;18608;53.688;10.748;2023-07-28T09:36:57;1.43;;;1.30;;
32094;SDS011;18608;53.688;10.748;2023-07-28T09:39:24;1.90;;;1.80;;
32094;SDS011;18608;53.688;10.748;2023-07-28T09:41:50;2.70;;;2.20;;
32094;SDS011;18608;53.688;10.748;2023-07-28T09:44:16;4.73;;;2.10;;
32094;SDS011;18608;53.688;10.748;2023-07-28T09:46:49;1.20;;;1.20;;
32094;SDS011;18608;53.688;10.748;2023-07-28T09:49:20;1.50;;;1.40;;
32094;SDS011;18608;53.688;10.748;2023-07-28T09:51:53;1.50;;;1.30;;
32094;SDS011;18608;53.688;10.748;2023-07-28T09:54:28;1.77;;;1.67;;
32094;SDS011;18608;53.688;10.748;2023-07-28T09:56:58;2.50;;;1.53;;
32094;SDS011;18608;53.688;10.748;2023-07-28T09:59:35;2.20;;;2.10;;
32094;SDS011;18608;53.688;10.748;2023-07-28T10:02:03;1.50;;;1.40;;
32094;SDS011;18608;53.688;10.748;2023-07-28T10:04:30;1.90;;;1.80;;
32094;SDS011;18608;53.688;10.748;2023-07-28T10:06:56;2.40;;;1.50;;
32094;SDS011;18608;53.688;10.748;2023-07-28T10:09:26;1.13;;;1.13;;
32094;SDS011;18608;53.688;10.748;2023-07-28T10:11:53;1.50;;;1.40;;
32094;SDS011;18608;53.688;10.748;2023-07-28T10:17:03;1.63;;;1.53;;
32094;SDS011;18608;53.688;10.748;2023-07-28T10:19:34;1.63;;;1.53;;
32094;SDS011;18608;53.688;10.748;2023-07-28T10:22:01;2.53;;;1.80;;
32094;SDS011;18608;53.688;10.748;2023-07-28T10:30:10;1.83;;;1.73;;
32094;SDS011;18608;53.688;10.748;2023-07-28T10:32:38;1.60;;;1.50;;
32094;SDS011;18608;53.688;10.748;2023-07-28T10:35:09;2.00;;;1.63;;
32094;SDS011;18608;53.688;10.748;2023-07-28T10:37:47;1.20;;;1.20;;
32094;SDS011;18608;53.688;10.748;2023-07-28T10:42:56;2.33;;;2.17;;
32094;SDS011;18608;53.688;10.748;2023-07-28T10:45:22;1.90;;;1.80;;
32094;SDS011;18608;53.688;10.748;2023-07-28T10:47:50;2.30;;;1.70;;
32094;SDS011;18608;53.688;10.748;2023-07-28T10:50:17;2.77;;;2.07;;
32094;SDS011;18608;53.688;10.748;2023-07-28T10:52:45;3.07;;;1.47;;
32094;SDS011;18608;53.688;10.748;2023-07-28T10:55:12;5.50;;;1.60;;
32094;SDS011;18608;53.688;10.748;2023-07-28T10:57:38;2.03;;;1.50;;
32094;SDS011;18608;53.688;10.748;2023-07-28T11:00:06;1.40;;;1.30;;
32094;SDS011;18608;53.688;10.748;2023-07-28T11:02:32;2.90;;;1.97;;
32094;SDS011;18608;53.688;10.748;2023-07-28T11:04:59;1.60;;;1.40;;
32094;SDS011;18608;53.688;10.748;2023-07-28T11:07:25;1.57;;;1.20;;
32094;SDS011;18608;53.688;10.748;2023-07-28T11:09:51;1.47;;;1.20;;
32094;SDS011;18608;53.688;10.748;2023-07-28T11:12:18;1.50;;;1.20;;
32094;SDS011;18608;53.688;10.748;2023-07-28T11:14:44;8.10;;;2.57;;
32094;SDS011;18608;53.688;10.748;2023-07-28T11:17:10;5.43;;;1.77;;
32094;SDS011;18608;53.688;10.748;2023-07-28T11:19:36;1.10;;;1.10;;
32094;SDS011;18608;53.688;10.748;2023-07-28T11:22:02;3.30;;;1.33;;
32094;SDS011;18608;53.688;10.748;2023-07-28T11:24:28;1.27;;;1.17;;
32094;SDS011;18608;53.688;10.748;2023-07-28T11:26:54;1.60;;;1.50;;
32094;SDS011;18608;53.688;10.748;2023-07-28T11:29:23;1.10;;;1.10;;
32094;SDS011;18608;53.688;10.748;2023-07-28T11:31:49;0.97;;;0.97;;
32094;SDS011;18608;53.688;10.748;2023-07-28T11:34:16;1.03;;;1.03;;
32094;SDS011;18608;53.688;10.748;2023-07-28T11:36:43;1.13;;;1.03;;
32094;SDS011;18608;53.688;10.748;2023-07-28T11:39:09;2.30;;;1.23;;
32094;SDS011;18608;53.688;10.748;2023-07-28T11:41:35;1.27;;;1.00;;
32094;SDS011;18608;53.688;10.748;2023-07-28T11:44:02;1.10;;;1.00;;
32094;SDS011;18608;53.688;10.748;2023-07-28T11:46:32;1.73;;;1.33;;
32094;SDS011;18608;53.688;10.748;2023-07-28T11:51:36;1.50;;;1.40;;
32094;SDS011;18608;53.688;10.748;2023-07-28T11:54:08;1.40;;;1.30;;
32094;SDS011;18608;53.688;10.748;2023-07-28T11:56:36;1.47;;;1.27;;
32094;SDS011;18608;53.688;10.748;2023-07-28T11:59:02;1.43;;;1.33;;
32094;SDS011;18608;53.688;10.748;2023-07-28T12:01:29;1.30;;;1.10;;
32094;SDS011;18608;53.688;10.748;2023-07-28T12:03:55;3.03;;;1.40;;
32094;SDS011;18608;53.688;10.748;2023-07-28T12:06:21;0.93;;;0.90;;
32094;SDS011;18608;53.688;10.748;2023-07-28T12:08:47;1.60;;;1.33;;
32094;SDS011;18608;53.688;10.748;2023-07-28T12:11:13;2.20;;;1.27;;
32094;SDS011;18608;53.688;10.748;2023-07-28T12:13:50;1.87;;;1.00;;
32094;SDS011;18608;53.688;10.748;2023-07-28T12:16:37;1.53;;;1.37;;
32094;SDS011;18608;53.688;10.748;2023-07-28T12:19:05;1.37;;;1.37;;
32094;SDS011;18608;53.688;10.748;2023-07-28T12:21:31;1.17;;;1.07;;
32094;SDS011;18608;53.688;10.748;2023-07-28T12:23:57;2.73;;;0.97;;
32094;SDS011;18608;53.688;10.748;2023-07-28T12:26:23;6.10;;;1.27;;
32094;SDS011;18608;53.688;10.748;2023-07-28T12:28:49;1.40;;;1.00;;
32094;SDS011;18608;53.688;10.748;2023-07-28T12:31:15;1.27;;;1.17;;
32094;SDS011;18608;53.688;10.748;2023-07-28T12:33:41;1.20;;;1.10;;
32094;SDS011;18608;53.688;10.748;2023-07-28T12:36:07;2.43;;;1.30;;
32094;SDS011;18608;53.688;10.748;2023-07-28T12:38:33;1.27;;;1.17;;
32094;SDS011;18608;53.688;10.748;2023-07-28T12:40:59;1.20;;;1.10;;
32094;SDS011;18608;53.688;10.748;2023-07-28T12:43:25;3.43;;;1.50;;
32094;SDS011;18608;53.688;10.748;2023-07-28T12:45:51;1.30;;;1.20;;
32094;SDS011;18608;53.688;10.748;2023-07-28T12:48:18;1.97;;;1.20;;
32094;SDS011;18608;53.688;10.748;2023-07-28T12:50:44;1.20;;;1.10;;
32094;SDS011;18608;53.688;10.748;2023-07-28T12:53:11;1.43;;;1.33;;
32094;SDS011;18608;53.688;10.748;2023-07-28T12:55:37;1.23;;;1.23;;
32094;SDS011;18608;53.688;10.748;2023-07-28T12:58:03;1.70;;;1.60;;
32094;SDS011;18608;53.688;10.748;2023-07-28T13:00:29;1.40;;;1.30;;
32094;SDS011;18608;53.688;10.748;2023-07-28T13:02:55;1.63;;;1.53;;
32094;SDS011;18608;53.688;10.748;2023-07-28T13:05:21;1.60;;;1.27;;
32094;SDS011;18608;53.688;10.748;2023-07-28T13:07:47;1.97;;;1.50;;
32094;SDS011;18608;53.688;10.748;2023-07-28T13:10:13;2.10;;;1.73;;
32094;SDS011;18608;53.688;10.748;2023-07-28T13:12:39;2.10;;;1.57;;
32094;SDS011;18608;53.688;10.748;2023-07-28T13:15:05;1.00;;;1.00;;
32094;SDS011;18608;53.688;10.748;2023-07-28T13:17:31;1.60;;;1.50;;
32094;SDS011;18608;53.688;10.748;2023-07-28T13:19:57;1.40;;;1.30;;
32094;SDS011;18608;53.688;10.748;2023-07-28T13:22:24;1.50;;;1.40;;
32094;SDS011;18608;53.688;10.748;2023-07-28T13:24:51;1.63;;;1.00;;
32094;SDS011;18608;53.688;10.748;2023-07-28T13:27:18;2.10;;;1.47;;
32094;SDS011;18608;53.688;10.748;2023-07-28T13:29:44;1.57;;;1.47;;
32094;SDS011;18608;53.688;10.748;2023-07-28T13:32:17;2.40;;;1.10;;
32094;SDS011;18608;53.688;10.748;2023-07-28T13:34:47;1.43;;;1.20;;
32094;SDS011;18608;53.688;10.748;2023-07-28T13:37:13;6.20;;;1.73;;
32094;SDS011;18608;53.688;10.748;2023-07-28T13:39:39;1.40;;;1.30;;
32094;SDS011;18608;53.688;10.748;2023-07-28T13:42:05;1.10;;;1.00;;
32094;SDS011;18608;53.688;10.748;2023-07-28T13:44:31;1.50;;;1.13;;
32094;SDS011;18608;53.688;10.748;2023-07-28T13:46:57;1.83;;;1.20;;
32094;SDS011;18608;53.688;10.748;2023-07-28T13:49:24;1.60;;;1.50;;
32094;SDS011;18608;53.688;10.748;2023-07-28T13:51:50;1.33;;;1.07;;
32094;SDS011;18608;53.688;10.748;2023-07-28T13:54:16;1.27;;;1.17;;
32094;SDS011;18608;53.688;10.748;2023-07-28T13:56:42;1.50;;;1.40;;
32094;SDS011;18608;53.688;10.748;2023-07-28T13:59:09;1.40;;;1.30;;
32094;SDS011;18608;53.688;10.748;2023-07-28T14:01:35;1.70;;;1.60;;
32094;SDS011;18608;53.688;10.748;2023-07-28T14:04:01;1.37;;;1.27;;
32094;SDS011;18608;53.688;10.748;2023-07-28T14:06:27;1.33;;;1.23;;
32094;SDS011;18608;53.688;10.748;2023-07-28T14:08:53;1.07;;;1.00;;
32094;SDS011;18608;53.688;10.748;2023-07-28T14:11:19;4.63;;;1.87;;
32094;SDS011;18608;53.688;10.748;2023-07-28T14:13:45;0.93;;;0.83;;
32094;SDS011;18608;53.688;10.748;2023-07-28T14:16:11;4.13;;;1.97;;
32094;SDS011;18608;53.688;10.748;2023-07-28T14:18:37;2.30;;;1.47;;
32094;SDS011;18608;53.688;10.748;2023-07-28T14:21:05;1.10;;;1.10;;
32094;SDS011;18608;53.688;10.748;2023-07-28T14:23:31;1.23;;;1.20;;
32094;SDS011;18608;53.688;10.748;2023-07-28T14:25:57;2.50;;;1.10;;
32094;SDS011;18608;53.688;10.748;2023-07-28T14:28:23;1.40;;;1.30;;
32094;SDS011;18608;53.688;10.748;2023-07-28T14:30:50;1.10;;;1.00;;
32094;SDS011;18608;53.688;10.748;2023-07-28T14:33:16;1.63;;;1.30;;
32094;SDS011;18608;53.688;10.748;2023-07-28T14:35:43;3.00;;;1.50;;
32094;SDS011;18608;53.688;10.748;2023-07-28T14:38:10;1.43;;;1.33;;
32094;SDS011;18608;53.688;10.748;2023-07-28T14:40:36;1.77;;;1.23;;
32094;SDS011;18608;53.688;10.748;2023-07-28T14:43:03;1.30;;;1.20;;
32094;SDS011;18608;53.688;10.748;2023-07-28T14:45:29;1.53;;;1.43;;
32094;SDS011;18608;53.688;10.748;2023-07-28T14:47:55;1.50;;;1.40;;
32094;SDS011;18608;53.688;10.748;2023-07-28T14:50:21;1.53;;;1.43;;